sensor_id;sensor_type;location;lat;lon;timestamp;pressure;altitude;pressure_sealevel;temperature
11424;BMP180;5768;51.476;7.210;2022-09-13T00:04:19;99763.00;;;22.00
11424;BMP180;5768;51.476;7.210;2022-09-13T00:09:21;99758.00;;;22.10
11424;BMP180;5768;51.476;7.210;2022-09-13T00:14:24;99742.00;;;22.10
11424;BMP180;5768;51.476;7.210;2022-09-13T00:19:27;99724.00;;;22.00
11424;BMP180;5768;51.476;7.210;2022-09-13T00:24:29;99729.00;;;22.10
11424;BMP180;5768;51.476;7.210;2022-09-13T00:29:32;99718.00;;;22.10
11424;BMP180;5768;51.476;7.210;2022-09-13T00:34:35;99709.00;;;22.20
11424;BMP180;5768;51.476;7.210;2022-09-13T00:39:37;99709.00;;;22.30
11424;BMP180;5768;51.476;7.210;2022-09-13T00:44:55;99715.00;;;22.30
11424;BMP180;5768;51.476;7.210;2022-09-13T00:50:08;99705.00;;;22.40
11424;BMP180;5768;51.476;7.210;2022-09-13T00:55:18;99705.00;;;22.40
11424;BMP180;5768;51.476;7.210;2022-09-13T01:00:21;99711.00;;;22.40
11424;BMP180;5768;51.476;7.210;2022-09-13T01:05:29;99708.00;;;22.40
11424;BMP180;5768;51.476;7.210;2022-09-13T01:10:33;99713.00;;;22.40
11424;BMP180;5768;51.476;7.210;2022-09-13T01:15:40;99702.00;;;22.40
11424;BMP180;5768;51.476;7.210;2022-09-13T01:21:37;99692.00;;;22.20
11424;BMP180;5768;51.476;7.210;2022-09-13T01:32:34;99694.00;;;22.20
11424;BMP180;5768;51.476;7.210;2022-09-13T01:37:51;99693.00;;;22.10
11424;BMP180;5768;51.476;7.210;2022-09-13T01:43:15;99682.00;;;22.00
11424;BMP180;5768;51.476;7.210;2022-09-13T01:48:35;99684.00;;;22.00
11424;BMP180;5768;51.476;7.210;2022-09-13T01:53:48;99683.00;;;22.00
11424;BMP180;5768;51.476;7.210;2022-09-13T01:58:57;99687.00;;;22.00
11424;BMP180;5768;51.476;7.210;2022-09-13T02:04:07;99685.00;;;22.00
11424;BMP180;5768;51.476;7.210;2022-09-13T02:09:14;99671.00;;;22.10
11424;BMP180;5768;51.476;7.210;2022-09-13T02:14:21;99677.00;;;22.10
11424;BMP180;5768;51.476;7.210;2022-09-13T02:19:32;99681.00;;;22.10
11424;BMP180;5768;51.476;7.210;2022-09-13T02:24:41;99678.00;;;22.20
11424;BMP180;5768;51.476;7.210;2022-09-13T02:29:47;99690.00;;;22.20
11424;BMP180;5768;51.476;7.210;2022-09-13T02:34:59;99692.00;;;22.10
11424;BMP180;5768;51.476;7.210;2022-09-13T02:40:08;99686.00;;;22.10
11424;BMP180;5768;51.476;7.210;2022-09-13T02:45:13;99677.00;;;22.20
11424;BMP180;5768;51.476;7.210;2022-09-13T02:50:36;99677.00;;;22.20
11424;BMP180;5768;51.476;7.210;2022-09-13T02:55:49;99676.00;;;22.20
11424;BMP180;5768;51.476;7.210;2022-09-13T03:00:58;99668.00;;;22.30
11424;BMP180;5768;51.476;7.210;2022-09-13T03:06:03;99683.00;;;22.30
11424;BMP180;5768;51.476;7.210;2022-09-13T03:11:13;99678.00;;;22.30
11424;BMP180;5768;51.476;7.210;2022-09-13T03:16:35;99692.00;;;22.40
11424;BMP180;5768;51.476;7.210;2022-09-13T03:22:06;99682.00;;;22.40
11424;BMP180;5768;51.476;7.210;2022-09-13T03:27:22;99685.00;;;22.40
11424;BMP180;5768;51.476;7.210;2022-09-13T03:32:43;99691.00;;;22.40
11424;BMP180;5768;51.476;7.210;2022-09-13T03:37:57;99687.00;;;22.30
11424;BMP180;5768;51.476;7.210;2022-09-13T03:43:10;99687.00;;;22.30
11424;BMP180;5768;51.476;7.210;2022-09-13T03:48:14;99686.00;;;22.30
11424;BMP180;5768;51.476;7.210;2022-09-13T03:53:23;99683.00;;;22.30
11424;BMP180;5768;51.476;7.210;2022-09-13T03:58:26;99676.00;;;22.30
11424;BMP180;5768;51.476;7.210;2022-09-13T04:03:28;99676.00;;;22.30
11424;BMP180;5768;51.476;7.210;2022-09-13T04:08:32;99684.00;;;22.30
11424;BMP180;5768;51.476;7.210;2022-09-13T04:13:35;99679.00;;;22.30
11424;BMP180;5768;51.476;7.210;2022-09-13T04:18:37;99667.00;;;22.30
11424;BMP180;5768;51.476;7.210;2022-09-13T04:23:41;99662.00;;;22.20
11424;BMP180;5768;51.476;7.210;2022-09-13T04:28:43;99668.00;;;22.20
11424;BMP180;5768;51.476;7.210;2022-09-13T04:33:45;99659.00;;;22.10
11424;BMP180;5768;51.476;7.210;2022-09-13T04:38:48;99669.00;;;22.00
11424;BMP180;5768;51.476;7.210;2022-09-13T04:43:51;99675.00;;;22.00
11424;BMP180;5768;51.476;7.210;2022-09-13T04:48:53;99673.00;;;22.00
11424;BMP180;5768;51.476;7.210;2022-09-13T04:53:57;99674.00;;;22.00
11424;BMP180;5768;51.476;7.210;2022-09-13T04:59:00;99678.00;;;22.00
11424;BMP180;5768;51.476;7.210;2022-09-13T05:04:02;99685.00;;;21.90
11424;BMP180;5768;51.476;7.210;2022-09-13T05:09:06;99680.00;;;22.00
11424;BMP180;5768;51.476;7.210;2022-09-13T05:14:10;99678.00;;;22.00
11424;BMP180;5768;51.476;7.210;2022-09-13T05:19:13;99673.00;;;21.90
11424;BMP180;5768;51.476;7.210;2022-09-13T05:24:16;99676.00;;;22.00
11424;BMP180;5768;51.476;7.210;2022-09-13T05:29:19;99671.00;;;22.00
11424;BMP180;5768;51.476;7.210;2022-09-13T05:34:21;99673.00;;;22.00
11424;BMP180;5768;51.476;7.210;2022-09-13T05:39:24;99673.00;;;22.00
11424;BMP180;5768;51.476;7.210;2022-09-13T05:44:27;99676.00;;;22.00
11424;BMP180;5768;51.476;7.210;2022-09-13T05:49:29;99689.00;;;22.10
11424;BMP180;5768;51.476;7.210;2022-09-13T05:54:32;99681.00;;;22.10
11424;BMP180;5768;51.476;7.210;2022-09-13T05:59:34;99702.00;;;22.20
11424;BMP180;5768;51.476;7.210;2022-09-13T06:04:36;99708.00;;;22.20
11424;BMP180;5768;51.476;7.210;2022-09-13T06:09:40;99705.00;;;22.30
11424;BMP180;5768;51.476;7.210;2022-09-13T06:14:42;99689.00;;;22.30
11424;BMP180;5768;51.476;7.210;2022-09-13T06:19:44;99691.00;;;22.30
11424;BMP180;5768;51.476;7.210;2022-09-13T06:24:48;99695.00;;;22.30
11424;BMP180;5768;51.476;7.210;2022-09-13T06:29:50;99699.00;;;22.40
11424;BMP180;5768;51.476;7.210;2022-09-13T06:34:52;99700.00;;;22.50
11424;BMP180;5768;51.476;7.210;2022-09-13T06:39:56;99695.00;;;22.50
11424;BMP180;5768;51.476;7.210;2022-09-13T06:44:58;99697.00;;;22.50
11424;BMP180;5768;51.476;7.210;2022-09-13T06:50:00;99703.00;;;22.70
11424;BMP180;5768;51.476;7.210;2022-09-13T06:55:05;99704.00;;;22.70
11424;BMP180;5768;51.476;7.210;2022-09-13T07:00:09;99713.00;;;22.80
11424;BMP180;5768;51.476;7.210;2022-09-13T07:05:11;99708.00;;;22.90
11424;BMP180;5768;51.476;7.210;2022-09-13T07:10:17;99718.00;;;23.10
11424;BMP180;5768;51.476;7.210;2022-09-13T07:15:19;99707.00;;;23.30
11424;BMP180;5768;51.476;7.210;2022-09-13T07:20:21;99716.00;;;23.50
11424;BMP180;5768;51.476;7.210;2022-09-13T07:25:25;99712.00;;;23.40
11424;BMP180;5768;51.476;7.210;2022-09-13T07:30:27;99713.00;;;23.50
11424;BMP180;5768;51.476;7.210;2022-09-13T07:35:30;99712.00;;;23.90
11424;BMP180;5768;51.476;7.210;2022-09-13T07:40:33;99707.00;;;23.90
11424;BMP180;5768;51.476;7.210;2022-09-13T07:45:36;99712.00;;;24.10
11424;BMP180;5768;51.476;7.210;2022-09-13T07:50:38;99721.00;;;24.20
11424;BMP180;5768;51.476;7.210;2022-09-13T07:55:42;99730.00;;;24.20
11424;BMP180;5768;51.476;7.210;2022-09-13T08:00:44;99736.00;;;24.40
11424;BMP180;5768;51.476;7.210;2022-09-13T08:05:46;99733.00;;;24.50
11424;BMP180;5768;51.476;7.210;2022-09-13T08:10:50;99741.00;;;24.60
11424;BMP180;5768;51.476;7.210;2022-09-13T08:15:52;99742.00;;;24.70
11424;BMP180;5768;51.476;7.210;2022-09-13T08:20:55;99744.00;;;24.90
11424;BMP180;5768;51.476;7.210;2022-09-13T08:26:02;99747.00;;;24.90
11424;BMP180;5768;51.476;7.210;2022-09-13T08:31:08;99748.00;;;25.10
11424;BMP180;5768;51.476;7.210;2022-09-13T08:36:11;99752.00;;;25.10
11424;BMP180;5768;51.476;7.210;2022-09-13T08:42:02;99746.00;;;25.20
11424;BMP180;5768;51.476;7.210;2022-09-13T08:47:37;99741.00;;;25.30
11424;BMP180;5768;51.476;7.210;2022-09-13T08:52:55;99732.00;;;25.40
11424;BMP180;5768;51.476;7.210;2022-09-13T08:58:10;99741.00;;;25.30
11424;BMP180;5768;51.476;7.210;2022-09-13T09:03:24;99731.00;;;25.30
11424;BMP180;5768;51.476;7.210;2022-09-13T09:08:37;99732.00;;;25.50
11424;BMP180;5768;51.476;7.210;2022-09-13T09:13:50;99731.00;;;25.50
11424;BMP180;5768;51.476;7.210;2022-09-13T09:18:58;99729.00;;;25.50
11424;BMP180;5768;51.476;7.210;2022-09-13T09:24:04;99737.00;;;25.70
11424;BMP180;5768;51.476;7.210;2022-09-13T09:29:17;99727.00;;;25.90
11424;BMP180;5768;51.476;7.210;2022-09-13T09:34:29;99730.00;;;26.00
11424;BMP180;5768;51.476;7.210;2022-09-13T09:39:42;99727.00;;;26.20
11424;BMP180;5768;51.476;7.210;2022-09-13T09:44:50;99733.00;;;26.40
11424;BMP180;5768;51.476;7.210;2022-09-13T09:50:00;99724.00;;;26.50
11424;BMP180;5768;51.476;7.210;2022-09-13T09:55:17;99727.00;;;26.40
11424;BMP180;5768;51.476;7.210;2022-09-13T10:00:26;99727.00;;;26.70
11424;BMP180;5768;51.476;7.210;2022-09-13T10:05:30;99716.00;;;27.00
11424;BMP180;5768;51.476;7.210;2022-09-13T10:10:38;99718.00;;;27.10
11424;BMP180;5768;51.476;7.210;2022-09-13T10:15:54;99721.00;;;27.40
11424;BMP180;5768;51.476;7.210;2022-09-13T10:21:04;99726.00;;;27.60
11424;BMP180;5768;51.476;7.210;2022-09-13T10:26:11;99730.00;;;27.70
11424;BMP180;5768;51.476;7.210;2022-09-13T10:31:18;99736.00;;;27.50
11424;BMP180;5768;51.476;7.210;2022-09-13T10:36:25;99726.00;;;27.70
11424;BMP180;5768;51.476;7.210;2022-09-13T10:41:33;99717.00;;;27.90
11424;BMP180;5768;51.476;7.210;2022-09-13T10:46:39;99715.00;;;28.10
11424;BMP180;5768;51.476;7.210;2022-09-13T10:51:42;99714.00;;;28.30
11424;BMP180;5768;51.476;7.210;2022-09-13T10:56:45;99712.00;;;28.40
11424;BMP180;5768;51.476;7.210;2022-09-13T11:13:23;99705.00;;;28.20
11424;BMP180;5768;51.476;7.210;2022-09-13T11:18:56;99694.00;;;28.40
11424;BMP180;5768;51.476;7.210;2022-09-13T11:24:27;99696.00;;;28.40
11424;BMP180;5768;51.476;7.210;2022-09-13T11:30:02;99692.00;;;28.30
11424;BMP180;5768;51.476;7.210;2022-09-13T11:35:27;99687.00;;;28.30
11424;BMP180;5768;51.476;7.210;2022-09-13T11:40:45;99690.00;;;28.60
11424;BMP180;5768;51.476;7.210;2022-09-13T11:46:04;99684.00;;;28.70
11424;BMP180;5768;51.476;7.210;2022-09-13T11:51:22;99680.00;;;29.10
11424;BMP180;5768;51.476;7.210;2022-09-13T11:56:33;99678.00;;;29.80
11424;BMP180;5768;51.476;7.210;2022-09-13T12:01:41;99668.00;;;30.30
11424;BMP180;5768;51.476;7.210;2022-09-13T12:06:52;99662.00;;;30.30
11424;BMP180;5768;51.476;7.210;2022-09-13T12:12:02;99665.00;;;31.30
11424;BMP180;5768;51.476;7.210;2022-09-13T12:17:21;99657.00;;;31.70
11424;BMP180;5768;51.476;7.210;2022-09-13T12:22:32;99650.00;;;31.80
11424;BMP180;5768;51.476;7.210;2022-09-13T12:27:40;99660.00;;;31.30
11424;BMP180;5768;51.476;7.210;2022-09-13T12:32:45;99650.00;;;31.90
11424;BMP180;5768;51.476;7.210;2022-09-13T12:38:16;99645.00;;;32.80
11424;BMP180;5768;51.476;7.210;2022-09-13T12:49:32;99638.00;;;32.30
11424;BMP180;5768;51.476;7.210;2022-09-13T12:55:24;99651.00;;;33.20
11424;BMP180;5768;51.476;7.210;2022-09-13T13:00:33;99647.00;;;32.40
11424;BMP180;5768;51.476;7.210;2022-09-13T13:05:43;99639.00;;;32.30
11424;BMP180;5768;51.476;7.210;2022-09-13T13:11:01;99640.00;;;32.10
11424;BMP180;5768;51.476;7.210;2022-09-13T13:16:24;99639.00;;;32.00
11424;BMP180;5768;51.476;7.210;2022-09-13T13:21:37;99647.00;;;33.10
11424;BMP180;5768;51.476;7.210;2022-09-13T13:26:47;99654.00;;;35.10
11424;BMP180;5768;51.476;7.210;2022-09-13T13:32:11;99651.00;;;33.50
11424;BMP180;5768;51.476;7.210;2022-09-13T13:37:35;99644.00;;;32.50
11424;BMP180;5768;51.476;7.210;2022-09-13T13:42:40;99640.00;;;33.80
11424;BMP180;5768;51.476;7.210;2022-09-13T13:48:12;99639.00;;;36.10
11424;BMP180;5768;51.476;7.210;2022-09-13T13:53:33;99640.00;;;38.40
11424;BMP180;5768;51.476;7.210;2022-09-13T13:58:48;99642.00;;;39.90
11424;BMP180;5768;51.476;7.210;2022-09-13T14:09:37;99625.00;;;40.70
11424;BMP180;5768;51.476;7.210;2022-09-13T14:15:03;99632.00;;;37.90
11424;BMP180;5768;51.476;7.210;2022-09-13T14:21:03;99618.00;;;37.00
11424;BMP180;5768;51.476;7.210;2022-09-13T14:26:11;99616.00;;;36.70
11424;BMP180;5768;51.476;7.210;2022-09-13T14:31:25;99614.00;;;38.40
11424;BMP180;5768;51.476;7.210;2022-09-13T14:36:27;99631.00;;;37.00
11424;BMP180;5768;51.476;7.210;2022-09-13T14:41:33;99616.00;;;35.00
11424;BMP180;5768;51.476;7.210;2022-09-13T14:46:42;99615.00;;;33.50
11424;BMP180;5768;51.476;7.210;2022-09-13T14:51:51;99612.00;;;32.60
11424;BMP180;5768;51.476;7.210;2022-09-13T14:57:00;99615.00;;;32.20
11424;BMP180;5768;51.476;7.210;2022-09-13T15:02:20;99612.00;;;31.70
11424;BMP180;5768;51.476;7.210;2022-09-13T15:07:30;99616.00;;;31.60
11424;BMP180;5768;51.476;7.210;2022-09-13T15:12:48;99605.00;;;31.90
11424;BMP180;5768;51.476;7.210;2022-09-13T15:17:55;99597.00;;;32.00
11424;BMP180;5768;51.476;7.210;2022-09-13T15:22:58;99610.00;;;32.20
11424;BMP180;5768;51.476;7.210;2022-09-13T15:28:01;99607.00;;;32.40
11424;BMP180;5768;51.476;7.210;2022-09-13T15:33:18;99604.00;;;32.30
11424;BMP180;5768;51.476;7.210;2022-09-13T15:38:26;99590.00;;;31.20
11424;BMP180;5768;51.476;7.210;2022-09-13T15:43:30;99589.00;;;30.70
11424;BMP180;5768;51.476;7.210;2022-09-13T15:48:35;99599.00;;;30.30
11424;BMP180;5768;51.476;7.210;2022-09-13T15:53:40;99595.00;;;30.00
11424;BMP180;5768;51.476;7.210;2022-09-13T15:58:43;99597.00;;;29.90
11424;BMP180;5768;51.476;7.210;2022-09-13T16:03:47;99599.00;;;29.70
11424;BMP180;5768;51.476;7.210;2022-09-13T16:08:49;99595.00;;;29.40
11424;BMP180;5768;51.476;7.210;2022-09-13T16:13:52;99595.00;;;29.00
11424;BMP180;5768;51.476;7.210;2022-09-13T16:18:55;99590.00;;;28.60
11424;BMP180;5768;51.476;7.210;2022-09-13T16:23:57;99593.00;;;28.40
11424;BMP180;5768;51.476;7.210;2022-09-13T16:29:00;99601.00;;;28.30
11424;BMP180;5768;51.476;7.210;2022-09-13T16:34:04;99597.00;;;28.20
11424;BMP180;5768;51.476;7.210;2022-09-13T16:39:07;99597.00;;;27.80
11424;BMP180;5768;51.476;7.210;2022-09-13T16:44:09;99588.00;;;27.50
11424;BMP180;5768;51.476;7.210;2022-09-13T16:49:13;99599.00;;;27.30
11424;BMP180;5768;51.476;7.210;2022-09-13T16:54:16;99597.00;;;27.00
11424;BMP180;5768;51.476;7.210;2022-09-13T16:59:18;99604.00;;;26.90
11424;BMP180;5768;51.476;7.210;2022-09-13T17:04:23;99617.00;;;26.70
11424;BMP180;5768;51.476;7.210;2022-09-13T17:09:25;99602.00;;;26.50
11424;BMP180;5768;51.476;7.210;2022-09-13T17:14:27;99602.00;;;26.50
11424;BMP180;5768;51.476;7.210;2022-09-13T17:19:32;99611.00;;;26.30
11424;BMP180;5768;51.476;7.210;2022-09-13T17:24:34;99601.00;;;26.30
11424;BMP180;5768;51.476;7.210;2022-09-13T17:29:37;99606.00;;;26.20
11424;BMP180;5768;51.476;7.210;2022-09-13T17:34:40;99612.00;;;26.10
11424;BMP180;5768;51.476;7.210;2022-09-13T17:39:42;99607.00;;;26.00
11424;BMP180;5768;51.476;7.210;2022-09-13T17:44:45;99612.00;;;25.90
11424;BMP180;5768;51.476;7.210;2022-09-13T17:49:49;99610.00;;;25.90
11424;BMP180;5768;51.476;7.210;2022-09-13T17:54:51;99597.00;;;25.80
11424;BMP180;5768;51.476;7.210;2022-09-13T17:59:53;99588.00;;;25.80
11424;BMP180;5768;51.476;7.210;2022-09-13T18:04:57;99599.00;;;25.70
11424;BMP180;5768;51.476;7.210;2022-09-13T18:10:00;99602.00;;;25.70
11424;BMP180;5768;51.476;7.210;2022-09-13T18:15:03;99603.00;;;25.60
11424;BMP180;5768;51.476;7.210;2022-09-13T18:20:08;99601.00;;;25.60
11424;BMP180;5768;51.476;7.210;2022-09-13T18:25:13;99610.00;;;25.60
11424;BMP180;5768;51.476;7.210;2022-09-13T18:30:17;99610.00;;;25.60
11424;BMP180;5768;51.476;7.210;2022-09-13T18:35:21;99603.00;;;25.50
11424;BMP180;5768;51.476;7.210;2022-09-13T18:40:24;99592.00;;;25.40
11424;BMP180;5768;51.476;7.210;2022-09-13T18:45:27;99599.00;;;25.40
11424;BMP180;5768;51.476;7.210;2022-09-13T18:50:31;99590.00;;;25.30
11424;BMP180;5768;51.476;7.210;2022-09-13T18:55:35;99611.00;;;25.30
11424;BMP180;5768;51.476;7.210;2022-09-13T19:00:39;99600.00;;;25.30
11424;BMP180;5768;51.476;7.210;2022-09-13T19:05:44;99614.00;;;25.30
11424;BMP180;5768;51.476;7.210;2022-09-13T19:10:47;99611.00;;;25.30
11424;BMP180;5768;51.476;7.210;2022-09-13T19:15:49;99609.00;;;25.20
11424;BMP180;5768;51.476;7.210;2022-09-13T19:21:00;99595.00;;;25.20
11424;BMP180;5768;51.476;7.210;2022-09-13T19:26:05;99584.00;;;25.20
11424;BMP180;5768;51.476;7.210;2022-09-13T19:31:11;99599.00;;;25.20
11424;BMP180;5768;51.476;7.210;2022-09-13T19:36:19;99602.00;;;25.10
11424;BMP180;5768;51.476;7.210;2022-09-13T19:41:25;99604.00;;;25.00
11424;BMP180;5768;51.476;7.210;2022-09-13T19:46:30;99595.00;;;25.00
11424;BMP180;5768;51.476;7.210;2022-09-13T19:51:37;99594.00;;;24.90
11424;BMP180;5768;51.476;7.210;2022-09-13T19:56:42;99601.00;;;24.80
11424;BMP180;5768;51.476;7.210;2022-09-13T20:01:46;99601.00;;;24.70
11424;BMP180;5768;51.476;7.210;2022-09-13T20:06:53;99590.00;;;24.60
11424;BMP180;5768;51.476;7.210;2022-09-13T20:11:55;99596.00;;;24.60
11424;BMP180;5768;51.476;7.210;2022-09-13T20:17:00;99596.00;;;24.50
11424;BMP180;5768;51.476;7.210;2022-09-13T20:22:05;99593.00;;;24.40
11424;BMP180;5768;51.476;7.210;2022-09-13T20:27:07;99583.00;;;24.30
11424;BMP180;5768;51.476;7.210;2022-09-13T20:32:10;99590.00;;;24.20
11424;BMP180;5768;51.476;7.210;2022-09-13T20:37:14;99582.00;;;24.10
11424;BMP180;5768;51.476;7.210;2022-09-13T20:42:17;99566.00;;;24.10
11424;BMP180;5768;51.476;7.210;2022-09-13T20:47:19;99582.00;;;24.00
11424;BMP180;5768;51.476;7.210;2022-09-13T20:52:22;99582.00;;;24.00
11424;BMP180;5768;51.476;7.210;2022-09-13T20:57:25;99576.00;;;24.00
11424;BMP180;5768;51.476;7.210;2022-09-13T21:02:27;99578.00;;;23.90
11424;BMP180;5768;51.476;7.210;2022-09-13T21:07:33;99581.00;;;23.90
11424;BMP180;5768;51.476;7.210;2022-09-13T21:12:53;99587.00;;;23.80
11424;BMP180;5768;51.476;7.210;2022-09-13T21:17:56;99588.00;;;23.80
11424;BMP180;5768;51.476;7.210;2022-09-13T21:22:59;99598.00;;;23.70
11424;BMP180;5768;51.476;7.210;2022-09-13T21:28:02;99603.00;;;23.80
11424;BMP180;5768;51.476;7.210;2022-09-13T21:33:05;99590.00;;;23.70
11424;BMP180;5768;51.476;7.210;2022-09-13T21:38:08;99589.00;;;23.60
11424;BMP180;5768;51.476;7.210;2022-09-13T21:43:10;99576.00;;;23.50
11424;BMP180;5768;51.476;7.210;2022-09-13T21:48:13;99578.00;;;23.50
11424;BMP180;5768;51.476;7.210;2022-09-13T21:53:17;99583.00;;;23.40
11424;BMP180;5768;51.476;7.210;2022-09-13T21:58:19;99580.00;;;23.40
11424;BMP180;5768;51.476;7.210;2022-09-13T22:03:22;99595.00;;;23.40
11424;BMP180;5768;51.476;7.210;2022-09-13T22:08:26;99600.00;;;23.40
11424;BMP180;5768;51.476;7.210;2022-09-13T22:13:32;99598.00;;;23.40
11424;BMP180;5768;51.476;7.210;2022-09-13T22:18:35;99596.00;;;23.30
11424;BMP180;5768;51.476;7.210;2022-09-13T22:23:44;99591.00;;;23.30
11424;BMP180;5768;51.476;7.210;2022-09-13T22:28:52;99585.00;;;23.20
11424;BMP180;5768;51.476;7.210;2022-09-13T22:33:57;99569.00;;;23.20
11424;BMP180;5768;51.476;7.210;2022-09-13T22:39:02;99581.00;;;23.10
11424;BMP180;5768;51.476;7.210;2022-09-13T22:44:08;99576.00;;;23.10
11424;BMP180;5768;51.476;7.210;2022-09-13T22:49:12;99592.00;;;23.10
11424;BMP180;5768;51.476;7.210;2022-09-13T22:54:18;99579.00;;;23.10
11424;BMP180;5768;51.476;7.210;2022-09-13T22:59:20;99572.00;;;23.10
11424;BMP180;5768;51.476;7.210;2022-09-13T23:04:22;99572.00;;;23.00
11424;BMP180;5768;51.476;7.210;2022-09-13T23:09:26;99567.00;;;23.00
11424;BMP180;5768;51.476;7.210;2022-09-13T23:14:29;99569.00;;;23.00
11424;BMP180;5768;51.476;7.210;2022-09-13T23:19:31;99561.00;;;22.90
11424;BMP180;5768;51.476;7.210;2022-09-13T23:24:34;99560.00;;;22.80
11424;BMP180;5768;51.476;7.210;2022-09-13T23:29:36;99565.00;;;22.70
11424;BMP180;5768;51.476;7.210;2022-09-13T23:34:38;99548.00;;;22.70
11424;BMP180;5768;51.476;7.210;2022-09-13T23:39:42;99535.00;;;22.60
11424;BMP180;5768;51.476;7.210;2022-09-13T23:44:44;99534.00;;;22.60
11424;BMP180;5768;51.476;7.210;2022-09-13T23:49:46;99525.00;;;22.50
11424;BMP180;5768;51.476;7.210;2022-09-13T23:54:50;99523.00;;;22.40
11424;BMP180;5768;51.476;7.210;2022-09-13T23:59:52;99527.00;;;22.30
